Time;durP1;ratioP1;P1;durP2;ratioP2;P2;SDS_P1;SDS_P2;PMS_P1;PMS_P2;Temp;Humidity;BMP_temperature;BMP_pressure;BME280_temperature;BME280_humidity;BME280_pressure;Samples;Min_cycle;Max_cycle;Signal;HPM_P1;HPM_P2
2022/10/09 03:02:39;;;;;;;;;;;19.60;49.70;;;;;;4880095;28;45243;-64
2022/10/09 03:05:05;;;;;;;;;;;19.60;49.70;;;;;;4906041;28;44977;-63
2022/10/09 03:07:30;;;;;;;;;;;19.60;49.70;;;;;;4891765;28;44923;-63
2022/10/09 03:09:57;;;;;;;;;;;19.60;49.70;;;;;;4909723;28;45799;-64
2022/10/09 03:12:22;;;;;;;;;;;19.60;49.70;;;;;;4908602;28;44930;-63
2022/10/09 03:14:48;;;;;;;;;;;19.60;49.70;;;;;;4911865;28;45002;-63
2022/10/09 03:17:13;;;;;;;;;;;19.50;49.70;;;;;;4907365;28;44871;-63
2022/10/09 03:19:39;;;;;;;;;;;19.50;49.60;;;;;;4893962;28;46931;-63
2022/10/09 03:22:04;;;;;;;;;;;19.60;49.70;;;;;;4913546;28;44976;-63
2022/10/09 03:24:30;;;;;;;;;;;19.50;49.60;;;;;;4918880;28;44983;-63
2022/10/09 03:26:55;;;;;;;;;;;19.50;49.70;;;;;;4911542;28;44884;-63
2022/10/09 03:29:21;;;;;;;;;;;19.50;49.70;;;;;;4907383;28;45100;-63
2022/10/09 03:31:46;;;;;;;;;;;19.50;49.60;;;;;;4909241;28;44846;-63
2022/10/09 03:34:12;;;;;;;;;;;19.50;49.70;;;;;;4909951;28;45116;-64
2022/10/09 03:36:37;;;;;;;;;;;19.50;49.60;;;;;;4892688;28;44910;-63
2022/10/09 03:39:03;;;;;;;;;;;19.50;49.60;;;;;;4909960;28;46055;-63
2022/10/09 03:41:28;;;;;;;;;;;19.50;49.70;;;;;;4906482;28;44923;-64
2022/10/09 03:43:54;;;;;;;;;;;19.50;49.70;;;;;;4909221;28;44965;-63
2022/10/09 03:46:19;;;;;;;;;;;19.50;49.70;;;;;;4912186;28;45363;-63
2022/10/09 03:48:45;;;;;;;;;;;19.50;49.70;;;;;;4911640;28;46047;-63
2022/10/09 03:51:10;;;;;;;;;;;19.50;49.70;;;;;;4906810;28;45003;-63
2022/10/09 03:53:36;;;;;;;;;;;19.50;49.70;;;;;;4904093;28;45037;-63
2022/10/09 03:56:01;;;;;;;;;;;19.50;49.70;;;;;;4914132;28;44714;-63
2022/10/09 03:58:27;;;;;;;;;;;19.50;49.70;;;;;;4895187;28;46168;-63
2022/10/09 04:00:52;;;;;;;;;;;19.50;49.70;;;;;;4895895;28;44787;-63
2022/10/09 04:03:18;;;;;;;;;;;19.40;49.60;;;;;;4909882;28;45003;-63
2022/10/09 04:05:43;;;;;;;;;;;19.40;49.70;;;;;;4911056;28;44831;-63
2022/10/09 04:08:09;;;;;;;;;;;19.40;49.70;;;;;;4910083;28;45400;-63
2022/10/09 04:10:34;;;;;;;;;;;19.40;49.60;;;;;;4896396;28;46310;-63
2022/10/09 04:13:00;;;;;;;;;;;19.40;49.70;;;;;;4907928;28;45357;-63
2022/10/09 04:15:25;;;;;;;;;;;19.40;49.70;;;;;;4907447;28;46188;-63
2022/10/09 04:17:51;;;;;;;;;;;19.40;49.70;;;;;;4910041;28;45930;-63
2022/10/09 04:20:16;;;;;;;;;;;19.40;49.70;;;;;;4907294;28;44877;-62
2022/10/09 04:22:42;;;;;;;;;;;19.40;49.70;;;;;;4890552;28;44897;-63
2022/10/09 04:25:08;;;;;;;;;;;19.40;49.70;;;;;;4911023;28;45047;-62
2022/10/09 04:27:33;;;;;;;;;;;19.40;49.70;;;;;;4914102;28;46083;-62
2022/10/09 04:29:59;;;;;;;;;;;19.40;49.70;;;;;;4911124;28;45395;-63
2022/10/09 04:32:24;;;;;;;;;;;19.40;49.70;;;;;;4911804;28;45151;-63
2022/10/09 04:34:50;;;;;;;;;;;19.40;49.70;;;;;;4914707;28;44962;-62
2022/10/09 04:37:15;;;;;;;;;;;19.40;49.70;;;;;;4904391;28;44920;-63
2022/10/09 04:39:41;;;;;;;;;;;19.40;49.70;;;;;;4911540;28;44687;-63
2022/10/09 04:42:07;;;;;;;;;;;19.40;49.70;;;;;;4912335;28;44783;-64
2022/10/09 04:44:32;;;;;;;;;;;19.30;49.70;;;;;;4912765;28;44897;-63
2022/10/09 04:46:58;;;;;;;;;;;19.30;49.60;;;;;;4906432;28;45124;-64
2022/10/09 04:49:23;;;;;;;;;;;19.30;49.60;;;;;;4911594;28;44888;-63
2022/10/09 04:51:49;;;;;;;;;;;19.30;49.60;;;;;;4910581;28;45394;-63
2022/10/09 04:54:14;;;;;;;;;;;19.30;49.60;;;;;;4904253;28;45451;-63
2022/10/09 04:56:40;;;;;;;;;;;19.30;49.60;;;;;;4912247;28;46019;-63
2022/10/09 04:59:05;;;;;;;;;;;19.40;49.70;;;;;;4914098;28;45980;-63
2022/10/09 05:01:31;;;;;;;;;;;19.30;49.70;;;;;;4916467;28;44661;-64
2022/10/09 05:03:56;;;;;;;;;;;19.30;49.60;;;;;;4919449;28;45215;-62
2022/10/09 05:06:22;;;;;;;;;;;19.30;49.60;;;;;;4913760;28;45830;-62
2022/10/09 05:08:47;;;;;;;;;;;19.30;49.60;;;;;;4916028;28;44724;-62
2022/10/09 05:11:17;;;;;;;;;;;19.30;49.60;;;;;;4917866;28;44973;-62
2022/10/09 05:13:44;;;;;;;;;;;19.30;49.60;;;;;;4912100;28;45017;-62
2022/10/09 05:16:10;;;;;;;;;;;19.30;49.60;;;;;;4902606;28;45323;-62
2022/10/09 05:18:43;;;;;;;;;;;19.30;49.60;;;;;;4910996;28;45104;-62
2022/10/09 05:21:08;;;;;;;;;;;19.30;49.70;;;;;;4899889;28;44920;-62
2022/10/09 05:23:34;;;;;;;;;;;19.30;49.70;;;;;;4912782;28;44680;-62
2022/10/09 05:26:00;;;;;;;;;;;19.30;49.70;;;;;;4915301;28;46039;-62
2022/10/09 05:28:26;;;;;;;;;;;19.30;49.60;;;;;;4898497;28;45015;-62
2022/10/09 05:30:51;;;;;;;;;;;19.30;49.60;;;;;;4912279;28;45024;-62
2022/10/09 05:33:19;;;;;;;;;;;19.30;49.60;;;;;;4913243;28;45100;-62
2022/10/09 05:35:58;;;;;;;;;;;19.30;49.60;;;;;;4889690;28;46643;-62
2022/10/09 05:38:23;;;;;;;;;;;19.30;49.60;;;;;;4885890;28;45640;-62
2022/10/09 05:40:56;;;;;;;;;;;19.30;49.70;;;;;;4889971;28;45359;-62
2022/10/09 05:43:22;;;;;;;;;;;19.30;49.70;;;;;;4907604;28;44862;-62
2022/10/09 05:45:47;;;;;;;;;;;19.20;49.70;;;;;;4915166;28;45582;-62
2022/10/09 05:48:13;;;;;;;;;;;19.20;49.60;;;;;;4914049;28;45116;-62
2022/10/09 05:50:38;;;;;;;;;;;19.20;49.60;;;;;;4908805;28;45118;-62
2022/10/09 05:53:04;;;;;;;;;;;19.30;49.60;;;;;;4913694;28;44881;-62
2022/10/09 05:55:29;;;;;;;;;;;19.20;49.60;;;;;;4897644;28;46039;-61
2022/10/09 05:57:54;;;;;;;;;;;19.20;49.60;;;;;;4916134;28;45391;-62
2022/10/09 06:00:20;;;;;;;;;;;19.20;49.60;;;;;;4899534;28;44922;-62
2022/10/09 06:02:45;;;;;;;;;;;19.20;49.60;;;;;;4913542;28;45086;-62
2022/10/09 06:05:11;;;;;;;;;;;19.20;49.60;;;;;;4909220;28;46120;-62
2022/10/09 06:07:37;;;;;;;;;;;19.20;49.60;;;;;;4907725;28;45424;-62
2022/10/09 06:10:02;;;;;;;;;;;19.20;49.60;;;;;;4904891;28;45130;-62
2022/10/09 06:12:28;;;;;;;;;;;19.20;49.60;;;;;;4910643;28;45506;-62
2022/10/09 06:14:53;;;;;;;;;;;19.20;49.60;;;;;;4913645;28;46229;-62
2022/10/09 06:17:19;;;;;;;;;;;19.20;49.60;;;;;;4911025;28;45222;-62
2022/10/09 06:19:44;;;;;;;;;;;19.20;49.60;;;;;;4919119;28;45330;-62
2022/10/09 06:22:10;;;;;;;;;;;19.20;49.60;;;;;;4913267;28;44772;-62
2022/10/09 06:24:35;;;;;;;;;;;19.20;49.60;;;;;;4915008;28;46039;-62
2022/10/09 06:27:01;;;;;;;;;;;19.20;49.60;;;;;;4910704;28;44871;-62
2022/10/09 06:29:26;;;;;;;;;;;19.30;49.50;;;;;;4910775;28;44890;-62
2022/10/09 06:31:52;;;;;;;;;;;19.30;49.50;;;;;;4908015;28;46251;-62
2022/10/09 06:34:17;;;;;;;;;;;19.30;49.50;;;;;;4915049;28;45455;-62
2022/10/09 06:36:43;;;;;;;;;;;19.20;49.50;;;;;;4913382;28;44688;-61
2022/10/09 06:39:08;;;;;;;;;;;19.20;49.40;;;;;;4911070;28;45022;-62
2022/10/09 06:41:34;;;;;;;;;;;19.30;49.40;;;;;;4911323;28;44758;-62
2022/10/09 06:44:00;;;;;;;;;;;19.30;49.40;;;;;;4915146;28;46525;-63
2022/10/09 06:46:27;;;;;;;;;;;19.30;49.40;;;;;;4910410;28;44972;-62
2022/10/09 06:48:52;;;;;;;;;;;19.30;49.40;;;;;;4896348;28;45114;-62
2022/10/09 06:51:18;;;;;;;;;;;19.30;49.30;;;;;;4907268;28;44996;-62
2022/10/09 06:53:45;;;;;;;;;;;19.30;49.30;;;;;;4904450;28;45884;-62
2022/10/09 06:56:10;;;;;;;;;;;19.30;49.30;;;;;;4910416;28;45003;-62
2022/10/09 06:58:36;;;;;;;;;;;19.30;49.20;;;;;;4909756;28;44668;-62
2022/10/09 07:01:04;;;;;;;;;;;19.30;49.20;;;;;;4915230;28;44844;-62
2022/10/09 07:03:30;;;;;;;;;;;19.40;49.20;;;;;;4913220;28;46137;-62
2022/10/09 07:06:08;;;;;;;;;;;19.40;49.20;;;;;;4912946;28;44878;-62
2022/10/09 07:08:34;;;;;;;;;;;19.40;49.20;;;;;;4915520;28;44749;-62
2022/10/09 07:10:59;;;;;;;;;;;19.40;49.20;;;;;;4898201;28;44934;-62
2022/10/09 07:13:25;;;;;;;;;;;19.40;49.20;;;;;;4894995;28;45811;-62
2022/10/09 07:15:50;;;;;;;;;;;19.40;49.10;;;;;;4907986;28;45175;-62
2022/10/09 07:18:16;;;;;;;;;;;19.40;49.10;;;;;;4912676;28;44794;-62
2022/10/09 07:20:41;;;;;;;;;;;19.40;49.20;;;;;;4906049;28;45029;-62
2022/10/09 07:23:07;;;;;;;;;;;19.40;49.10;;;;;;4909547;28;46009;-62
2022/10/09 07:25:36;;;;;;;;;;;19.40;49.10;;;;;;4906675;28;44937;-62
2022/10/09 07:28:01;;;;;;;;;;;19.40;49.20;;;;;;4908338;28;45229;-62
2022/10/09 07:30:27;;;;;;;;;;;19.40;49.20;;;;;;4915503;28;44787;-62
2022/10/09 07:32:52;;;;;;;;;;;19.40;49.20;;;;;;4910640;28;48633;-62
2022/10/09 07:35:18;;;;;;;;;;;19.40;49.20;;;;;;4927408;23;44879;-62
2022/10/09 07:37:43;;;;;;;;;;;19.40;49.20;;;;;;4915021;28;44907;-62
2022/10/09 07:40:09;;;;;;;;;;;19.40;49.10;;;;;;4933328;28;45152;-62
2022/10/09 07:42:34;;;;;;;;;;;19.50;49.20;;;;;;4895061;28;45448;-62
2022/10/09 07:45:00;;;;;;;;;;;19.40;49.10;;;;;;4925990;28;44897;-62
2022/10/09 07:47:25;;;;;;;;;;;19.50;49.20;;;;;;4936365;28;44828;-62
2022/10/09 07:49:51;;;;;;;;;;;19.50;49.20;;;;;;4929465;28;45663;-62
2022/10/09 07:52:16;;;;;;;;;;;19.50;49.10;;;;;;4927389;28;46090;-62
2022/10/09 07:54:42;;;;;;;;;;;19.50;49.10;;;;;;4928832;28;44878;-62
2022/10/09 07:57:07;;;;;;;;;;;19.50;49.10;;;;;;4928851;28;45593;-62
2022/10/09 07:59:33;;;;;;;;;;;19.50;49.00;;;;;;4921440;28;45135;-62
2022/10/09 08:01:58;;;;;;;;;;;19.50;49.00;;;;;;4929308;28;46113;-62
2022/10/09 08:04:24;;;;;;;;;;;19.60;49.10;;;;;;4929564;28;44984;-62
2022/10/09 08:06:49;;;;;;;;;;;19.60;49.00;;;;;;4912282;28;45351;-62
2022/10/09 08:09:16;;;;;;;;;;;19.60;48.90;;;;;;4924351;28;45129;-62
2022/10/09 08:11:41;;;;;;;;;;;19.60;48.90;;;;;;4934066;28;46379;-62
2022/10/09 08:14:08;;;;;;;;;;;19.60;48.90;;;;;;4930416;28;44787;-62
2022/10/09 08:16:33;;;;;;;;;;;19.60;48.80;;;;;;4896839;28;44951;-62
2022/10/09 08:18:59;;;;;;;;;;;19.60;48.80;;;;;;4928007;28;44945;-62
2022/10/09 08:21:26;;;;;;;;;;;19.60;48.70;;;;;;4909423;28;46283;-62
2022/10/09 08:23:53;;;;;;;;;;;19.60;48.70;;;;;;4932215;28;44943;-62
2022/10/09 08:26:19;;;;;;;;;;;19.70;48.70;;;;;;4910685;28;45487;-62
2022/10/09 08:28:51;;;;;;;;;;;19.70;49.30;;;;;;4930722;28;45341;-62
2022/10/09 08:31:16;;;;;;;;;;;19.70;48.70;;;;;;4930240;28;46175;-62
2022/10/09 08:33:42;;;;;;;;;;;19.70;48.70;;;;;;4926451;28;44950;-63
2022/10/09 08:36:08;;;;;;;;;;;19.70;48.70;;;;;;4934609;28;44820;-62
2022/10/09 08:38:34;;;;;;;;;;;19.70;48.70;;;;;;4928611;28;45134;-62
2022/10/09 08:41:10;;;;;;;;;;;19.70;48.70;;;;;;4927096;28;45023;-62
2022/10/09 08:43:38;;;;;;;;;;;19.70;48.60;;;;;;4933973;28;44757;-62
2022/10/09 08:46:05;;;;;;;;;;;19.80;48.60;;;;;;4908730;28;44652;-63
2022/10/09 08:48:31;;;;;;;;;;;19.80;48.60;;;;;;4918071;28;45266;-62
2022/10/09 08:50:56;;;;;;;;;;;19.80;48.60;;;;;;4913413;28;44839;-62
2022/10/09 08:53:37;;;;;;;;;;;19.80;48.60;;;;;;4906481;28;44959;-63
2022/10/09 08:56:03;;;;;;;;;;;19.70;48.60;;;;;;4926941;28;45390;-62
2022/10/09 08:58:33;;;;;;;;;;;19.80;48.70;;;;;;4910389;28;45464;-63
2022/10/09 09:01:17;;;;;;;;;;;19.80;48.70;;;;;;4910103;28;45963;-63
2022/10/09 09:03:51;;;;;;;;;;;19.80;48.70;;;;;;4930398;28;45132;-63
2022/10/09 09:06:33;;;;;;;;;;;19.80;48.70;;;;;;4926592;28;44867;-62
2022/10/09 09:09:00;;;;;;;;;;;19.80;48.80;;;;;;4907723;28;45992;-63
2022/10/09 09:11:58;;;;;;;;;;;19.80;48.80;;;;;;4915381;28;46678;-63
2022/10/09 09:14:24;;;;;;;;;;;19.80;48.80;;;;;;4884656;28;45451;-62
2022/10/09 09:16:49;;;;;;;;;;;19.80;48.80;;;;;;4929674;28;44796;-63
2022/10/09 09:19:26;;;;;;;;;;;19.80;48.70;;;;;;4927512;28;45334;-63
2022/10/09 09:21:52;;;;;;;;;;;19.80;48.60;;;;;;4930835;28;46546;-63
2022/10/09 09:24:24;;;;;;;;;;;19.90;48.60;;;;;;4920358;28;44951;-63
2022/10/09 09:26:50;;;;;;;;;;;19.80;48.60;;;;;;4909768;28;45122;-62
2022/10/09 09:29:17;;;;;;;;;;;19.80;48.60;;;;;;4904277;28;44785;-62
2022/10/09 09:31:42;;;;;;;;;;;19.80;48.60;;;;;;4910142;28;45990;-62
2022/10/09 09:34:09;;;;;;;;;;;19.90;48.60;;;;;;4912681;28;46244;-61
2022/10/09 09:36:47;;;;;;;;;;;19.90;48.60;;;;;;4927380;28;45240;-63
2022/10/09 09:39:13;;;;;;;;;;;19.90;48.60;;;;;;4909200;28;44861;-63
2022/10/09 09:41:39;;;;;;;;;;;19.90;48.50;;;;;;4930562;28;45081;-63
2022/10/09 09:44:05;;;;;;;;;;;19.90;48.40;;;;;;4912710;28;45109;-63
2022/10/09 09:46:30;;;;;;;;;;;20.00;48.40;;;;;;4912028;28;44603;-63
2022/10/09 09:48:56;;;;;;;;;;;20.00;48.40;;;;;;4898029;28;44986;-62
2022/10/09 09:51:25;;;;;;;;;;;20.00;48.30;;;;;;4926367;28;44894;-63
2022/10/09 09:53:51;;;;;;;;;;;20.00;48.30;;;;;;4915188;28;44619;-62
2022/10/09 09:56:17;;;;;;;;;;;20.00;48.30;;;;;;4931650;28;44624;-63
2022/10/09 09:58:47;;;;;;;;;;;20.00;48.30;;;;;;4912192;28;45324;-63
2022/10/09 10:01:19;;;;;;;;;;;20.00;48.20;;;;;;4904730;28;46019;-65
2022/10/09 10:03:49;;;;;;;;;;;20.10;48.30;;;;;;4916062;28;44869;-63
2022/10/09 10:06:21;;;;;;;;;;;20.10;48.20;;;;;;4913342;28;44875;-63
2022/10/09 10:08:56;;;;;;;;;;;20.10;48.20;;;;;;4927742;28;44961;-63
2022/10/09 10:11:21;;;;;;;;;;;20.10;48.20;;;;;;4915400;28;46156;-63
2022/10/09 10:13:48;;;;;;;;;;;20.10;48.20;;;;;;4912038;28;46265;-62
2022/10/09 10:16:39;;;;;;;;;;;20.10;48.20;;;;;;4914066;28;45371;-62
2022/10/09 10:19:05;;;;;;;;;;;20.10;48.20;;;;;;4911984;28;45240;-63
2022/10/09 10:21:40;;;;;;;;;;;20.10;48.20;;;;;;4894396;28;45979;-62
2022/10/09 10:24:08;;;;;;;;;;;20.10;48.20;;;;;;4916369;28;45246;-62
2022/10/09 10:26:35;;;;;;;;;;;20.10;48.20;;;;;;4916209;28;44925;-63
2022/10/09 10:29:03;;;;;;;;;;;20.10;48.20;;;;;;4883848;28;44966;-63
2022/10/09 10:31:55;;;;;;;;;;;20.10;48.20;;;;;;4899445;28;46200;-63
2022/10/09 10:34:25;;;;;;;;;;;20.10;48.20;;;;;;4884892;28;45391;-62
2022/10/09 10:37:05;;;;;;;;;;;20.10;48.20;;;;;;4882397;28;45303;-62
2022/10/09 10:39:33;;;;;;;;;;;20.10;48.20;;;;;;4916539;28;45670;-63
2022/10/09 10:41:59;;;;;;;;;;;20.10;48.20;;;;;;4905757;28;45257;-61
2022/10/09 10:44:38;;;;;;;;;;;20.10;48.20;;;;;;4898594;28;45413;-62
2022/10/09 10:47:05;;;;;;;;;;;20.10;48.20;;;;;;4894830;28;44899;-62
2022/10/09 10:49:31;;;;;;;;;;;20.10;48.20;;;;;;4901236;28;45546;-63
2022/10/09 10:51:56;;;;;;;;;;;20.10;48.20;;;;;;4896925;28;45511;-62
2022/10/09 10:54:34;;;;;;;;;;;20.10;48.20;;;;;;4909497;28;45369;-63
2022/10/09 10:57:13;;;;;;;;;;;20.10;48.20;;;;;;4912822;28;45283;-62
2022/10/09 10:59:45;;;;;;;;;;;20.10;48.20;;;;;;4896145;28;44755;-63
2022/10/09 11:02:29;;;;;;;;;;;20.10;48.20;;;;;;4915712;28;44873;-62
2022/10/09 11:05:04;;;;;;;;;;;20.20;48.20;;;;;;4914618;28;45530;-62
2022/10/09 11:07:49;;;;;;;;;;;20.10;48.30;;;;;;4880049;28;45539;-63
2022/10/09 11:10:16;;;;;;;;;;;20.20;48.20;;;;;;4916522;28;45334;-63
2022/10/09 11:13:01;;;;;;;;;;;20.20;48.20;;;;;;4897821;28;45451;-63
2022/10/09 11:15:36;;;;;;;;;;;20.20;48.20;;;;;;4911518;28;45167;-63
2022/10/09 11:18:11;;;;;;;;;;;20.20;48.10;;;;;;4897073;28;45320;-63
2022/10/09 11:20:47;;;;;;;;;;;20.20;48.10;;;;;;4916149;28;44881;-63
2022/10/09 11:23:34;;;;;;;;;;;20.20;48.10;;;;;;4915416;28;45238;-63
2022/10/09 11:26:10;;;;;;;;;;;20.20;48.10;;;;;;4898881;28;44972;-63
2022/10/09 11:28:38;;;;;;;;;;;20.20;48.00;;;;;;4899590;28;45156;-63
2022/10/09 11:31:09;;;;;;;;;;;20.20;48.00;;;;;;4883558;28;45503;-62
2022/10/09 11:33:40;;;;;;;;;;;20.20;48.10;;;;;;4896628;28;45972;-63
2022/10/09 11:36:09;;;;;;;;;;;20.20;48.00;;;;;;4898056;28;45876;-63
2022/10/09 11:38:39;;;;;;;;;;;20.20;48.10;;;;;;4902469;28;45208;-61
2022/10/09 11:41:04;;;;;;;;;;;20.20;48.00;;;;;;4906848;28;45748;-63
2022/10/09 11:43:42;;;;;;;;;;;20.30;48.10;;;;;;4914617;28;46109;-63
2022/10/09 11:46:08;;;;;;;;;;;20.30;48.10;;;;;;4914896;28;45281;-62
2022/10/09 11:48:40;;;;;;;;;;;20.20;48.00;;;;;;4910697;28;46085;-62
2022/10/09 11:51:05;;;;;;;;;;;20.30;48.10;;;;;;4900011;28;45547;-62
2022/10/09 11:53:33;;;;;;;;;;;20.20;48.10;;;;;;4913611;28;45489;-64
2022/10/09 11:56:02;;;;;;;;;;;20.30;48.10;;;;;;4915629;28;45315;-63
2022/10/09 11:58:28;;;;;;;;;;;20.30;48.10;;;;;;4916134;28;44799;-63
2022/10/09 12:00:54;;;;;;;;;;;20.30;48.00;;;;;;4914513;28;45523;-63
2022/10/09 12:03:22;;;;;;;;;;;20.30;48.10;;;;;;4917858;28;46469;-63
2022/10/09 12:05:48;;;;;;;;;;;20.30;48.10;;;;;;4914305;28;46342;-63
2022/10/09 12:08:14;;;;;;;;;;;20.30;48.10;;;;;;4902636;28;45222;-63
2022/10/09 12:10:41;;;;;;;;;;;20.30;48.10;;;;;;4900678;28;44828;-64
2022/10/09 12:13:07;;;;;;;;;;;20.30;48.00;;;;;;4900492;28;47147;-63
2022/10/09 12:15:35;;;;;;;;;;;20.30;48.00;;;;;;4916356;28;45195;-63
2022/10/09 12:18:01;;;;;;;;;;;20.30;48.00;;;;;;4912142;28;45474;-62
2022/10/09 12:20:26;;;;;;;;;;;20.30;48.00;;;;;;4896691;28;45609;-63
2022/10/09 12:22:54;;;;;;;;;;;20.30;48.00;;;;;;4899265;28;46926;-63
2022/10/09 12:25:40;;;;;;;;;;;20.30;48.00;;;;;;4912021;28;45217;-63
2022/10/09 12:28:06;;;;;;;;;;;20.30;48.00;;;;;;4899564;28;45475;-63
2022/10/09 12:30:35;;;;;;;;;;;20.30;48.00;;;;;;4917339;28;45427;-63
2022/10/09 12:33:03;;;;;;;;;;;20.30;48.00;;;;;;4886883;28;45915;-63
2022/10/09 12:35:36;;;;;;;;;;;20.30;48.00;;;;;;4896700;28;45643;-63
2022/10/09 12:38:01;;;;;;;;;;;20.30;48.00;;;;;;4913598;28;45477;-63
2022/10/09 12:40:30;;;;;;;;;;;20.30;48.00;;;;;;4912139;28;45278;-63
2022/10/09 12:42:56;;;;;;;;;;;20.30;48.00;;;;;;4916887;28;45264;-63
2022/10/09 12:45:23;;;;;;;;;;;20.30;48.60;;;;;;4897435;28;45560;-63
2022/10/09 12:47:48;;;;;;;;;;;20.30;48.00;;;;;;4889101;28;45425;-63
2022/10/09 12:50:18;;;;;;;;;;;20.30;48.10;;;;;;4912440;28;45332;-62
2022/10/09 12:52:47;;;;;;;;;;;20.20;48.10;;;;;;4911488;28;46239;-63
2022/10/09 12:55:42;;;;;;;;;;;20.20;48.10;;;;;;4908338;28;45099;-63
2022/10/09 12:58:12;;;;;;;;;;;20.20;48.20;;;;;;4887199;28;45894;-63
2022/10/09 13:00:38;;;;;;;;;;;20.20;48.30;;;;;;4894739;28;45633;-63
2022/10/09 13:03:03;;;;;;;;;;;20.20;48.30;;;;;;4898499;28;46406;-62
2022/10/09 13:05:36;;;;;;;;;;;20.20;48.30;;;;;;4899378;28;45632;-62
2022/10/09 13:08:01;;;;;;;;;;;20.20;48.20;;;;;;4919100;28;45245;-63
2022/10/09 13:10:27;;;;;;;;;;;20.20;48.20;;;;;;4913508;28;45421;-63
2022/10/09 13:12:53;;;;;;;;;;;20.20;48.20;;;;;;4915199;28;46823;-62
2022/10/09 13:15:37;;;;;;;;;;;20.20;48.80;;;;;;4913141;28;44805;-62
2022/10/09 13:18:16;;;;;;;;;;;20.20;48.30;;;;;;4917319;28;45628;-62
2022/10/09 13:20:42;;;;;;;;;;;20.20;48.30;;;;;;4901655;28;45346;-63
2022/10/09 13:23:23;;;;;;;;;;;20.20;48.30;;;;;;4885421;28;46787;-63
2022/10/09 13:25:50;;;;;;;;;;;20.20;48.30;;;;;;4896591;28;44677;-63
2022/10/09 13:28:17;;;;;;;;;;;20.20;48.30;;;;;;4901665;28;45303;-63
2022/10/09 13:30:42;;;;;;;;;;;20.20;48.30;;;;;;4895853;28;45466;-63
2022/10/09 13:33:10;;;;;;;;;;;20.20;48.30;;;;;;4898950;28;46172;-61
2022/10/09 13:35:36;;;;;;;;;;;20.20;48.30;;;;;;4904306;28;45520;-63
2022/10/09 13:38:01;;;;;;;;;;;20.20;48.30;;;;;;4918233;28;45317;-62
2022/10/09 13:40:27;;;;;;;;;;;20.20;48.20;;;;;;4917643;28;45228;-63
2022/10/09 13:42:53;;;;;;;;;;;20.20;48.20;;;;;;4917157;28;45095;-63
2022/10/09 13:45:19;;;;;;;;;;;20.20;48.10;;;;;;4919046;28;44752;-63
2022/10/09 13:47:44;;;;;;;;;;;20.30;48.10;;;;;;4918544;28;45369;-63
2022/10/09 13:50:12;;;;;;;;;;;20.30;48.10;;;;;;4916903;28;44926;-63
2022/10/09 13:52:37;;;;;;;;;;;20.30;48.10;;;;;;4901533;28;47042;-63
2022/10/09 13:55:04;;;;;;;;;;;20.30;48.10;;;;;;4914112;28;45580;-63
2022/10/09 13:57:29;;;;;;;;;;;20.30;48.00;;;;;;4913868;28;45947;-63
2022/10/09 13:59:55;;;;;;;;;;;20.30;48.00;;;;;;4919598;28;45920;-63
2022/10/09 14:02:20;;;;;;;;;;;20.30;47.90;;;;;;4918481;28;45799;-63
2022/10/09 14:04:46;;;;;;;;;;;20.30;47.90;;;;;;4913816;28;44755;-63
2022/10/09 14:07:11;;;;;;;;;;;20.30;47.90;;;;;;4899922;28;45366;-63
2022/10/09 14:09:37;;;;;;;;;;;20.30;47.80;;;;;;4919746;28;45543;-63
2022/10/09 14:12:02;;;;;;;;;;;20.30;47.90;;;;;;4920942;28;46017;-62
2022/10/09 14:14:28;;;;;;;;;;;20.30;47.90;;;;;;4918654;28;45250;-63
2022/10/09 14:16:53;;;;;;;;;;;20.30;47.90;;;;;;4917041;28;45450;-63
2022/10/09 14:19:19;;;;;;;;;;;20.30;48.50;;;;;;4911160;28;45414;-62
2022/10/09 14:21:45;;;;;;;;;;;20.30;48.00;;;;;;4918558;28;46036;-63
2022/10/09 14:24:13;;;;;;;;;;;20.30;47.90;;;;;;4918303;28;45376;-63
2022/10/09 14:26:39;;;;;;;;;;;20.30;47.90;;;;;;4914796;28;45364;-63
2022/10/09 14:29:04;;;;;;;;;;;20.30;47.90;;;;;;4916530;28;45321;-62
2022/10/09 14:31:30;;;;;;;;;;;20.30;47.90;;;;;;4922417;28;45270;-63
2022/10/09 14:33:56;;;;;;;;;;;20.30;48.00;;;;;;4917312;28;45276;-63
2022/10/09 14:36:22;;;;;;;;;;;20.30;47.90;;;;;;4902111;28;45104;-63
2022/10/09 14:38:47;;;;;;;;;;;20.30;47.90;;;;;;4901632;28;45472;-63
2022/10/09 14:41:13;;;;;;;;;;;20.30;48.00;;;;;;4898584;28;45386;-62
2022/10/09 14:43:39;;;;;;;;;;;20.30;47.90;;;;;;4920224;28;44962;-63
2022/10/09 14:46:05;;;;;;;;;;;20.30;47.90;;;;;;4912154;28;45499;-63
2022/10/09 14:48:31;;;;;;;;;;;20.30;47.90;;;;;;4895303;28;45247;-62
2022/10/09 14:51:00;;;;;;;;;;;20.30;47.90;;;;;;4915864;28;45903;-63
2022/10/09 14:53:26;;;;;;;;;;;20.30;47.90;;;;;;4901273;28;45025;-63
2022/10/09 14:55:51;;;;;;;;;;;20.30;47.90;;;;;;4914354;28;46082;-63
2022/10/09 14:58:17;;;;;;;;;;;20.30;47.90;;;;;;4897630;28;45501;-63
2022/10/09 15:00:46;;;;;;;;;;;20.30;47.90;;;;;;4921002;28;46120;-63
2022/10/09 15:03:11;;;;;;;;;;;20.30;47.90;;;;;;4919993;28;44731;-63
2022/10/09 15:05:37;;;;;;;;;;;20.30;47.90;;;;;;4917542;28;45296;-63
2022/10/09 15:08:02;;;;;;;;;;;20.30;47.90;;;;;;4920483;28;45571;-63
2022/10/09 15:10:28;;;;;;;;;;;20.30;47.90;;;;;;4912473;28;46006;-63
2022/10/09 15:12:53;;;;;;;;;;;20.30;47.90;;;;;;4916450;28;45280;-63
2022/10/09 15:15:19;;;;;;;;;;;20.30;47.90;;;;;;4915841;28;45368;-62
2022/10/09 15:17:44;;;;;;;;;;;20.30;47.80;;;;;;4916017;28;45350;-63
2022/10/09 15:20:10;;;;;;;;;;;20.40;47.90;;;;;;4916172;28;46065;-63
2022/10/09 15:22:35;;;;;;;;;;;20.40;47.90;;;;;;4890772;28;44924;-63
2022/10/09 15:25:01;;;;;;;;;;;20.30;47.80;;;;;;4894447;28;45331;-63
2022/10/09 15:27:26;;;;;;;;;;;20.30;47.80;;;;;;4913557;28;45137;-62
2022/10/09 15:29:52;;;;;;;;;;;20.40;47.90;;;;;;4907787;28;46160;-62
2022/10/09 15:32:17;;;;;;;;;;;20.30;47.80;;;;;;4913530;28;45444;-63
2022/10/09 15:34:42;;;;;;;;;;;20.30;47.80;;;;;;4909897;28;44724;-63
2022/10/09 15:37:08;;;;;;;;;;;20.40;47.90;;;;;;4911115;28;45585;-62
2022/10/09 15:39:34;;;;;;;;;;;20.30;47.80;;;;;;4914047;28;46293;-63
2022/10/09 15:41:59;;;;;;;;;;;20.40;47.80;;;;;;4911200;28;45408;-62
2022/10/09 15:44:25;;;;;;;;;;;20.30;47.80;;;;;;4913177;28;45361;-62
2022/10/09 15:46:50;;;;;;;;;;;20.30;47.80;;;;;;4915597;28;45660;-62
2022/10/09 15:49:16;;;;;;;;;;;20.30;47.90;;;;;;4916735;28;45951;-63
2022/10/09 15:51:41;;;;;;;;;;;20.30;47.80;;;;;;4911546;28;45240;-62
2022/10/09 15:54:07;;;;;;;;;;;20.30;47.80;;;;;;4923186;28;44701;-62
2022/10/09 15:56:32;;;;;;;;;;;20.30;47.90;;;;;;4918134;28;45315;-63
2022/10/09 15:58:58;;;;;;;;;;;20.30;47.90;;;;;;4912281;28;47287;-62
2022/10/09 16:01:23;;;;;;;;;;;20.30;47.90;;;;;;4915979;28;45394;-63
2022/10/09 16:03:49;;;;;;;;;;;20.30;47.90;;;;;;4897849;28;45465;-64
2022/10/09 16:06:16;;;;;;;;;;;20.30;47.90;;;;;;4908369;28;45360;-63
2022/10/09 16:08:41;;;;;;;;;;;20.30;47.90;;;;;;4897174;28;45489;-62
2022/10/09 16:11:08;;;;;;;;;;;20.30;47.90;;;;;;4915190;28;46264;-63
2022/10/09 16:13:34;;;;;;;;;;;20.30;47.90;;;;;;4893476;28;45288;-62
2022/10/09 16:16:02;;;;;;;;;;;20.30;47.90;;;;;;4898822;28;45640;-63
2022/10/09 16:18:27;;;;;;;;;;;20.30;47.90;;;;;;4897420;28;45556;-63
2022/10/09 16:20:53;;;;;;;;;;;20.30;48.00;;;;;;4912062;28;45239;-63
2022/10/09 16:23:18;;;;;;;;;;;20.30;48.00;;;;;;4912401;28;45181;-63
2022/10/09 16:25:45;;;;;;;;;;;20.30;48.00;;;;;;4914593;28;45661;-62
2022/10/09 16:28:10;;;;;;;;;;;20.30;48.00;;;;;;4897254;28;45863;-62
2022/10/09 16:30:42;;;;;;;;;;;20.30;48.00;;;;;;4917628;28;46307;-63
2022/10/09 16:33:08;;;;;;;;;;;20.30;48.00;;;;;;4911451;28;45549;-62
2022/10/09 16:35:34;;;;;;;;;;;20.20;48.00;;;;;;4901264;28;45149;-63
2022/10/09 16:37:59;;;;;;;;;;;20.30;48.10;;;;;;4912518;28;45228;-63
2022/10/09 16:40:25;;;;;;;;;;;20.20;48.00;;;;;;4911887;28;44859;-63
2022/10/09 16:42:50;;;;;;;;;;;20.20;48.00;;;;;;4914636;28;45243;-63
2022/10/09 16:45:16;;;;;;;;;;;20.20;47.90;;;;;;4898728;28;45109;-63
2022/10/09 16:47:43;;;;;;;;;;;20.20;48.00;;;;;;4895874;28;47199;-63
2022/10/09 16:50:08;;;;;;;;;;;20.20;47.90;;;;;;4914036;28;46112;-63
2022/10/09 16:52:34;;;;;;;;;;;20.20;47.90;;;;;;4913392;28;45659;-62
2022/10/09 16:54:59;;;;;;;;;;;20.20;47.90;;;;;;4894447;28;44781;-63
2022/10/09 16:57:25;;;;;;;;;;;20.20;47.90;;;;;;4909977;28;46108;-63
2022/10/09 16:59:50;;;;;;;;;;;20.20;48.50;;;;;;4915443;28;45105;-63
2022/10/09 17:02:16;;;;;;;;;;;20.20;47.90;;;;;;4915640;28;45619;-64
2022/10/09 17:04:41;;;;;;;;;;;20.20;48.00;;;;;;4917761;28;45195;-63
2022/10/09 17:07:07;;;;;;;;;;;20.20;48.00;;;;;;4909288;28;45503;-63
2022/10/09 17:09:36;;;;;;;;;;;20.20;48.10;;;;;;4894533;28;44737;-63
2022/10/09 17:12:04;;;;;;;;;;;20.20;48.10;;;;;;4894443;28;44827;-62
2022/10/09 17:14:30;;;;;;;;;;;20.20;48.10;;;;;;4911437;28;45238;-63
2022/10/09 17:16:55;;;;;;;;;;;20.20;48.00;;;;;;4900159;28;45478;-63
2022/10/09 17:19:21;;;;;;;;;;;20.20;48.00;;;;;;4917442;28;45194;-63